sensor_id;sensor_type;location;lat;lon;timestamp;pressure;altitude;pressure_sealevel;temperature;humidity
40075;BME280;26529;51.530;11.754;2023-01-10T00:00:28;99369.69;;;17.38;50.64
40075;BME280;26529;51.530;11.754;2023-01-10T00:03:00;99378.53;;;17.38;50.70
40075;BME280;26529;51.530;11.754;2023-01-10T00:05:26;99378.41;;;17.40;50.55
40075;BME280;26529;51.530;11.754;2023-01-10T00:07:51;99381.06;;;17.40;50.60
40075;BME280;26529;51.530;11.754;2023-01-10T00:10:17;99386.22;;;17.41;50.70
40075;BME280;26529;51.530;11.754;2023-01-10T00:12:42;99390.72;;;17.41;50.67
40075;BME280;26529;51.530;11.754;2023-01-10T00:15:26;99388.06;;;17.41;50.63
40075;BME280;26529;51.530;11.754;2023-01-10T00:17:51;99399.63;;;17.40;50.70
40075;BME280;26529;51.530;11.754;2023-01-10T00:20:17;99399.47;;;17.41;50.70
40075;BME280;26529;51.530;11.754;2023-01-10T00:22:43;99401.31;;;17.41;50.71
40075;BME280;26529;51.530;11.754;2023-01-10T00:25:10;99409.25;;;17.41;50.61
40075;BME280;26529;51.530;11.754;2023-01-10T00:27:35;99418.03;;;17.41;50.77
40075;BME280;26529;51.530;11.754;2023-01-10T00:30:01;99420.59;;;17.43;50.81
40075;BME280;26529;51.530;11.754;2023-01-10T00:32:36;99425.88;;;17.43;50.71
40075;BME280;26529;51.530;11.754;2023-01-10T00:35:01;99429.50;;;17.42;50.79
40075;BME280;26529;51.530;11.754;2023-01-10T00:37:31;99435.75;;;17.41;50.89
40075;BME280;26529;51.530;11.754;2023-01-10T00:39:56;99438.41;;;17.41;51.08
40075;BME280;26529;51.530;11.754;2023-01-10T00:42:23;99443.72;;;17.41;50.79
40075;BME280;26529;51.530;11.754;2023-01-10T00:45:07;99456.00;;;17.42;51.01
40075;BME280;26529;51.530;11.754;2023-01-10T00:47:33;99456.00;;;17.42;50.92
40075;BME280;26529;51.530;11.754;2023-01-10T00:49:58;99459.59;;;17.41;50.82
40075;BME280;26529;51.530;11.754;2023-01-10T00:52:24;99463.22;;;17.40;50.85
40075;BME280;26529;51.530;11.754;2023-01-10T00:54:49;99467.44;;;17.42;50.80
40075;BME280;26529;51.530;11.754;2023-01-10T00:57:15;99474.44;;;17.43;50.93
40075;BME280;26529;51.530;11.754;2023-01-10T00:59:40;99466.59;;;17.42;50.93
40075;BME280;26529;51.530;11.754;2023-01-10T01:02:05;99473.59;;;17.43;50.93
40075;BME280;26529;51.530;11.754;2023-01-10T01:04:31;99463.00;;;17.43;50.95
40075;BME280;26529;51.530;11.754;2023-01-10T01:07:01;99469.25;;;17.42;50.93
40075;BME280;26529;51.530;11.754;2023-01-10T01:09:28;99473.59;;;17.43;51.02
40075;BME280;26529;51.530;11.754;2023-01-10T01:11:54;99482.50;;;17.42;50.95
40075;BME280;26529;51.530;11.754;2023-01-10T01:14:22;99482.50;;;17.42;51.08
40075;BME280;26529;51.530;11.754;2023-01-10T01:16:47;99495.75;;;17.42;51.06
40075;BME280;26529;51.530;11.754;2023-01-10T01:19:13;99491.41;;;17.41;51.00
40075;BME280;26529;51.530;11.754;2023-01-10T01:21:38;99509.97;;;17.41;50.95
40075;BME280;26529;51.530;11.754;2023-01-10T01:24:04;99507.31;;;17.41;51.02
40075;BME280;26529;51.530;11.754;2023-01-10T01:26:29;99511.66;;;17.42;50.97
40075;BME280;26529;51.530;11.754;2023-01-10T01:28:55;99521.50;;;17.40;51.03
40075;BME280;26529;51.530;11.754;2023-01-10T01:31:20;99518.72;;;17.41;51.15
40075;BME280;26529;51.530;11.754;2023-01-10T01:33:47;99523.22;;;17.41;50.97
40075;BME280;26529;51.530;11.754;2023-01-10T01:36:12;99529.34;;;17.41;51.06
40075;BME280;26529;51.530;11.754;2023-01-10T01:38:38;99535.50;;;17.42;51.18
40075;BME280;26529;51.530;11.754;2023-01-10T01:41:05;99546.09;;;17.42;51.09
40075;BME280;26529;51.530;11.754;2023-01-10T01:44:03;99542.81;;;17.38;51.24
40075;BME280;26529;51.530;11.754;2023-01-10T01:46:31;99551.59;;;17.39;51.24
40075;BME280;26529;51.530;11.754;2023-01-10T01:48:58;99558.63;;;17.40;51.15
40075;BME280;26529;51.530;11.754;2023-01-10T01:51:26;99569.22;;;17.40;51.21
40075;BME280;26529;51.530;11.754;2023-01-10T01:53:59;99574.50;;;17.40;51.12
40075;BME280;26529;51.530;11.754;2023-01-10T01:56:36;99571.09;;;17.38;51.18
40075;BME280;26529;51.530;11.754;2023-01-10T01:59:10;99574.50;;;17.40;51.19
40075;BME280;26529;51.530;11.754;2023-01-10T02:01:39;99585.13;;;17.40;51.15
40075;BME280;26529;51.530;11.754;2023-01-10T02:04:29;99594.00;;;17.39;51.32
40075;BME280;26529;51.530;11.754;2023-01-10T02:06:57;99589.56;;;17.39;51.30
40075;BME280;26529;51.530;11.754;2023-01-10T02:09:34;99591.34;;;17.39;51.23
40075;BME280;26529;51.530;11.754;2023-01-10T02:12:02;99594.84;;;17.39;51.08
40075;BME280;26529;51.530;11.754;2023-01-10T02:14:28;99601.94;;;17.39;51.16
40075;BME280;26529;51.530;11.754;2023-01-10T02:16:55;99605.44;;;17.39;51.10
40075;BME280;26529;51.530;11.754;2023-01-10T02:19:28;99599.41;;;17.37;51.17
40075;BME280;26529;51.530;11.754;2023-01-10T02:25:46;99613.50;;;17.38;51.20
40075;BME280;26529;51.530;11.754;2023-01-10T02:28:48;99609.88;;;17.39;51.19
40075;BME280;26529;51.530;11.754;2023-01-10T02:34:31;99613.59;;;17.36;51.16
40075;BME280;26529;51.530;11.754;2023-01-10T02:37:16;99619.66;;;17.38;51.19
40075;BME280;26529;51.530;11.754;2023-01-10T02:39:54;99620.72;;;17.35;50.94
40075;BME280;26529;51.530;11.754;2023-01-10T02:42:28;99617.09;;;17.36;51.44
40075;BME280;26529;51.530;11.754;2023-01-10T02:45:07;99623.25;;;17.37;51.23
40075;BME280;26529;51.530;11.754;2023-01-10T02:47:38;99615.31;;;17.37;51.23
40075;BME280;26529;51.530;11.754;2023-01-10T02:52:58;99629.41;;;17.38;51.27
40075;BME280;26529;51.530;11.754;2023-01-10T02:55:31;99620.72;;;17.35;51.26
40075;BME280;26529;51.530;11.754;2023-01-10T02:58:19;99626.75;;;17.38;51.29
40075;BME280;26529;51.530;11.754;2023-01-10T03:00:57;99636.59;;;17.35;51.40
40075;BME280;26529;51.530;11.754;2023-01-10T03:03:46;99641.03;;;17.35;51.41
40075;BME280;26529;51.530;11.754;2023-01-10T03:06:43;99641.91;;;17.35;51.41
40075;BME280;26529;51.530;11.754;2023-01-10T03:11:38;99655.16;;;17.35;51.32
40075;BME280;26529;51.530;11.754;2023-01-10T03:14:17;99656.94;;;17.35;51.37
40075;BME280;26529;51.530;11.754;2023-01-10T03:16:50;99651.78;;;17.33;51.35
40075;BME280;26529;51.530;11.754;2023-01-10T03:19:20;99662.25;;;17.35;51.48
40075;BME280;26529;51.530;11.754;2023-01-10T03:21:48;99661.41;;;17.34;51.35
40075;BME280;26529;51.530;11.754;2023-01-10T03:24:21;99657.81;;;17.35;51.25
40075;BME280;26529;51.530;11.754;2023-01-10T03:26:59;99665.75;;;17.35;51.44
40075;BME280;26529;51.530;11.754;2023-01-10T03:29:36;99666.72;;;17.34;51.34
40075;BME280;26529;51.530;11.754;2023-01-10T03:32:06;99673.81;;;17.34;51.36
40075;BME280;26529;51.530;11.754;2023-01-10T03:34:36;99684.41;;;17.34;51.39
40075;BME280;26529;51.530;11.754;2023-01-10T03:37:08;99693.22;;;17.34;51.52
40075;BME280;26529;51.530;11.754;2023-01-10T03:39:53;99700.22;;;17.35;51.40
40075;BME280;26529;51.530;11.754;2023-01-10T03:42:39;99708.16;;;17.35;51.30
40075;BME280;26529;51.530;11.754;2023-01-10T03:45:42;99721.41;;;17.35;51.40
40075;BME280;26529;51.530;11.754;2023-01-10T03:48:10;99728.63;;;17.33;51.57
40075;BME280;26529;51.530;11.754;2023-01-10T03:50:36;99735.63;;;17.34;51.32
40075;BME280;26529;51.530;11.754;2023-01-10T03:53:03;99742.59;;;17.35;51.38
40075;BME280;26529;51.530;11.754;2023-01-10T03:55:29;99741.88;;;17.33;51.57
40075;BME280;26529;51.530;11.754;2023-01-10T03:57:55;99747.16;;;17.33;51.30
40075;BME280;26529;51.530;11.754;2023-01-10T04:00:21;99750.75;;;17.32;51.62
40075;BME280;26529;51.530;11.754;2023-01-10T04:02:46;99749.81;;;17.33;51.45
40075;BME280;26529;51.530;11.754;2023-01-10T04:05:12;99755.13;;;17.33;51.36
40075;BME280;26529;51.530;11.754;2023-01-10T04:07:38;99764.00;;;17.32;51.55
40075;BME280;26529;51.530;11.754;2023-01-10T04:10:04;99760.41;;;17.33;51.34
40075;BME280;26529;51.530;11.754;2023-01-10T04:12:30;99760.41;;;17.33;51.33
40075;BME280;26529;51.530;11.754;2023-01-10T04:14:55;99771.00;;;17.33;51.42
40075;BME280;26529;51.530;11.754;2023-01-10T04:17:21;99771.00;;;17.33;51.46
40075;BME280;26529;51.530;11.754;2023-01-10T04:19:46;99779.88;;;17.32;51.37
40075;BME280;26529;51.530;11.754;2023-01-10T04:22:11;99778.00;;;17.34;51.38
40075;BME280;26529;51.530;11.754;2023-01-10T04:24:37;99784.25;;;17.33;52.11
40075;BME280;26529;51.530;11.754;2023-01-10T04:27:03;99785.97;;;17.34;51.45
40075;BME280;26529;51.530;11.754;2023-01-10T04:29:28;99800.16;;;17.33;51.52
40075;BME280;26529;51.530;11.754;2023-01-10T04:31:54;99803.72;;;17.32;51.41
40075;BME280;26529;51.530;11.754;2023-01-10T04:34:20;99808.13;;;17.33;51.52
40075;BME280;26529;51.530;11.754;2023-01-10T04:36:46;99829.31;;;17.33;51.47
40075;BME280;26529;51.530;11.754;2023-01-10T04:39:12;99834.63;;;17.33;51.50
40075;BME280;26529;51.530;11.754;2023-01-10T04:41:37;99832.78;;;17.34;51.43
40075;BME280;26529;51.530;11.754;2023-01-10T04:44:04;99833.75;;;17.33;51.50
40075;BME280;26529;51.530;11.754;2023-01-10T04:46:29;99838.19;;;17.32;51.42
40075;BME280;26529;51.530;11.754;2023-01-10T04:48:55;99847.00;;;17.33;51.47
40075;BME280;26529;51.530;11.754;2023-01-10T04:51:22;99854.09;;;17.32;51.54
40075;BME280;26529;51.530;11.754;2023-01-10T04:53:47;99864.69;;;17.32;51.40
40075;BME280;26529;51.530;11.754;2023-01-10T04:56:19;99867.34;;;17.32;51.57
40075;BME280;26529;51.530;11.754;2023-01-10T04:58:45;99867.34;;;17.32;51.44
40075;BME280;26529;51.530;11.754;2023-01-10T05:01:14;99869.16;;;17.32;51.46
40075;BME280;26529;51.530;11.754;2023-01-10T05:03:40;99871.81;;;17.32;51.41
40075;BME280;26529;51.530;11.754;2023-01-10T05:06:06;99879.66;;;17.33;51.40
40075;BME280;26529;51.530;11.754;2023-01-10T05:08:32;99890.25;;;17.33;51.43
40075;BME280;26529;51.530;11.754;2023-01-10T05:10:58;99896.47;;;17.32;51.49
40075;BME280;26529;51.530;11.754;2023-01-10T05:13:23;99893.84;;;17.32;51.40
40075;BME280;26529;51.530;11.754;2023-01-10T05:15:53;99907.09;;;17.32;51.51
40075;BME280;26529;51.530;11.754;2023-01-10T05:18:19;99913.25;;;17.33;51.53
40075;BME280;26529;51.530;11.754;2023-01-10T05:20:44;99916.84;;;17.32;51.29
40075;BME280;26529;51.530;11.754;2023-01-10T05:23:10;99918.63;;;17.31;51.47
40075;BME280;26529;51.530;11.754;2023-01-10T05:25:35;99927.44;;;17.32;51.87
40075;BME280;26529;51.530;11.754;2023-01-10T05:28:01;99921.28;;;17.31;51.48
40075;BME280;26529;51.530;11.754;2023-01-10T05:30:26;99928.28;;;17.32;51.74
40075;BME280;26529;51.530;11.754;2023-01-10T05:32:51;99938.06;;;17.32;51.51
40075;BME280;26529;51.530;11.754;2023-01-10T05:35:17;99943.34;;;17.32;51.47
40075;BME280;26529;51.530;11.754;2023-01-10T05:37:42;99948.66;;;17.32;51.44
40075;BME280;26529;51.530;11.754;2023-01-10T05:40:08;99952.13;;;17.32;51.61
40075;BME280;26529;51.530;11.754;2023-01-10T05:42:34;99955.84;;;17.30;51.56
40075;BME280;26529;51.530;11.754;2023-01-10T05:45:00;99966.34;;;17.31;51.71
40075;BME280;26529;51.530;11.754;2023-01-10T05:47:25;99959.25;;;17.32;51.48
40075;BME280;26529;51.530;11.754;2023-01-10T05:49:51;99961.97;;;17.30;51.63
40075;BME280;26529;51.530;11.754;2023-01-10T05:52:16;99966.34;;;17.31;51.74
40075;BME280;26529;51.530;11.754;2023-01-10T05:54:42;99980.44;;;17.32;51.57
40075;BME280;26529;51.530;11.754;2023-01-10T05:57:07;99991.06;;;17.32;51.50
40075;BME280;26529;51.530;11.754;2023-01-10T05:59:33;99990.19;;;17.31;51.64
40075;BME280;26529;51.530;11.754;2023-01-10T06:01:58;99999.84;;;17.32;51.56
40075;BME280;26529;51.530;11.754;2023-01-10T06:04:24;99995.47;;;17.31;51.42
40075;BME280;26529;51.530;11.754;2023-01-10T06:06:50;100007.78;;;17.32;51.63
40075;BME280;26529;51.530;11.754;2023-01-10T06:09:16;100008.72;;;17.31;51.57
40075;BME280;26529;51.530;11.754;2023-01-10T06:11:41;100012.34;;;17.30;51.54
40075;BME280;26529;51.530;11.754;2023-01-10T06:14:07;100014.97;;;17.30;51.46
40075;BME280;26529;51.530;11.754;2023-01-10T06:16:32;100021.16;;;17.31;51.52
40075;BME280;26529;51.530;11.754;2023-01-10T06:18:58;100025.59;;;17.30;51.69
40075;BME280;26529;51.530;11.754;2023-01-10T06:21:23;100030.03;;;17.30;51.56
40075;BME280;26529;51.530;11.754;2023-01-10T06:23:49;100033.63;;;17.29;51.64
40075;BME280;26529;51.530;11.754;2023-01-10T06:26:15;100042.34;;;17.31;51.58
40075;BME280;26529;51.530;11.754;2023-01-10T06:28:40;100043.19;;;17.31;51.56
40075;BME280;26529;51.530;11.754;2023-01-10T06:31:06;100050.28;;;17.31;51.40
40075;BME280;26529;51.530;11.754;2023-01-10T06:33:33;100047.66;;;17.31;51.55
40075;BME280;26529;51.530;11.754;2023-01-10T06:35:59;100051.25;;;17.30;51.69
40075;BME280;26529;51.530;11.754;2023-01-10T06:38:24;100063.56;;;17.31;51.58
40075;BME280;26529;51.530;11.754;2023-01-10T06:40:50;100063.56;;;17.31;51.55
40075;BME280;26529;51.530;11.754;2023-01-10T06:43:15;100074.22;;;17.29;51.55
40075;BME280;26529;51.530;11.754;2023-01-10T06:45:41;100079.44;;;17.31;51.56
40075;BME280;26529;51.530;11.754;2023-01-10T06:48:07;100082.19;;;17.29;51.38
40075;BME280;26529;51.530;11.754;2023-01-10T06:50:32;100084.84;;;17.29;51.45
40075;BME280;26529;51.530;11.754;2023-01-10T06:53:02;100097.22;;;17.29;51.58
40075;BME280;26529;51.530;11.754;2023-01-10T06:55:28;100094.56;;;17.29;51.41
40075;BME280;26529;51.530;11.754;2023-01-10T06:58:01;100110.38;;;17.30;51.55
40075;BME280;26529;51.530;11.754;2023-01-10T07:00:28;100114.84;;;17.30;51.56
40075;BME280;26529;51.530;11.754;2023-01-10T07:02:56;100115.69;;;17.30;51.63
40075;BME280;26529;51.530;11.754;2023-01-10T07:05:22;100126.38;;;17.29;51.59
40075;BME280;26529;51.530;11.754;2023-01-10T07:07:48;100128.19;;;17.28;51.58
40075;BME280;26529;51.530;11.754;2023-01-10T07:10:13;100136.88;;;17.30;51.59
40075;BME280;26529;51.530;11.754;2023-01-10T07:12:39;100135.19;;;17.29;51.56
40075;BME280;26529;51.530;11.754;2023-01-10T07:15:05;100140.47;;;17.29;51.52
40075;BME280;26529;51.530;11.754;2023-01-10T07:17:30;100140.47;;;17.29;51.65
40075;BME280;26529;51.530;11.754;2023-01-10T07:19:56;100144.06;;;17.28;51.52
40075;BME280;26529;51.530;11.754;2023-01-10T07:22:21;100149.38;;;17.28;51.59
40075;BME280;26529;51.530;11.754;2023-01-10T07:24:47;100161.69;;;17.29;51.53
40075;BME280;26529;51.530;11.754;2023-01-10T07:27:12;100161.69;;;17.29;51.56
40075;BME280;26529;51.530;11.754;2023-01-10T07:29:38;100175.88;;;17.28;51.56
40075;BME280;26529;51.530;11.754;2023-01-10T07:32:04;100180.31;;;17.28;51.64
40075;BME280;26529;51.530;11.754;2023-01-10T07:34:29;100187.31;;;17.29;51.50
40075;BME280;26529;51.530;11.754;2023-01-10T07:36:55;100190.06;;;17.27;51.70
40075;BME280;26529;51.530;11.754;2023-01-10T07:39:20;100197.06;;;17.28;51.54
40075;BME280;26529;51.530;11.754;2023-01-10T07:41:47;100200.88;;;17.39;51.37
40075;BME280;26529;51.530;11.754;2023-01-10T07:44:14;100207.19;;;17.52;51.20
40075;BME280;26529;51.530;11.754;2023-01-10T07:46:40;100212.75;;;17.63;51.06
40075;BME280;26529;51.530;11.754;2023-01-10T07:49:05;100219.59;;;17.68;50.64
40075;BME280;26529;51.530;11.754;2023-01-10T07:51:31;100220.25;;;17.71;50.97
40075;BME280;26529;51.530;11.754;2023-01-10T07:53:56;100220.94;;;17.75;50.95
40075;BME280;26529;51.530;11.754;2023-01-10T07:56:22;100225.88;;;17.81;50.91
40075;BME280;26529;51.530;11.754;2023-01-10T07:58:48;100236.22;;;17.86;50.61
40075;BME280;26529;51.530;11.754;2023-01-10T08:01:14;100247.50;;;17.89;50.65
40075;BME280;26529;51.530;11.754;2023-01-10T08:03:39;100250.81;;;17.93;50.67
40075;BME280;26529;51.530;11.754;2023-01-10T08:06:07;100257.56;;;17.99;50.58
40075;BME280;26529;51.530;11.754;2023-01-10T08:08:34;100255.56;;;18.02;50.75
40075;BME280;26529;51.530;11.754;2023-01-10T08:11:00;100256.28;;;18.06;50.97
40075;BME280;26529;51.530;11.754;2023-01-10T08:13:29;100258.84;;;18.08;51.03
40075;BME280;26529;51.530;11.754;2023-01-10T08:15:55;100263.13;;;18.10;50.74
40075;BME280;26529;51.530;11.754;2023-01-10T08:18:22;100271.00;;;18.12;51.00
40075;BME280;26529;51.530;11.754;2023-01-10T08:20:49;100277.13;;;18.12;51.11
40075;BME280;26529;51.530;11.754;2023-01-10T08:23:16;100284.16;;;18.13;50.89
40075;BME280;26529;51.530;11.754;2023-01-10T08:25:42;100292.81;;;18.17;51.15
40075;BME280;26529;51.530;11.754;2023-01-10T08:28:07;100296.53;;;18.29;50.90
40075;BME280;26529;51.530;11.754;2023-01-10T08:33:12;100298.09;;;18.48;50.80
40075;BME280;26529;51.530;11.754;2023-01-10T08:35:39;100292.97;;;18.59;50.56
40075;BME280;26529;51.530;11.754;2023-01-10T08:38:04;100305.03;;;18.65;50.38
40075;BME280;26529;51.530;11.754;2023-01-10T08:40:30;100296.09;;;18.66;50.35
40075;BME280;26529;51.530;11.754;2023-01-10T08:43:00;100293.53;;;18.64;50.42
40075;BME280;26529;51.530;11.754;2023-01-10T08:45:26;100308.59;;;18.64;50.50
40075;BME280;26529;51.530;11.754;2023-01-10T08:47:52;100307.78;;;18.63;50.40
40075;BME280;26529;51.530;11.754;2023-01-10T08:50:18;100300.75;;;18.62;50.48
40075;BME280;26529;51.530;11.754;2023-01-10T08:52:43;100305.28;;;18.60;50.39
40075;BME280;26529;51.530;11.754;2023-01-10T08:55:09;100302.63;;;18.60;50.43
40075;BME280;26529;51.530;11.754;2023-01-10T08:57:35;100304.34;;;18.61;50.37
40075;BME280;26529;51.530;11.754;2023-01-10T09:00:01;100308.59;;;18.64;50.34
40075;BME280;26529;51.530;11.754;2023-01-10T09:02:27;100314.78;;;18.64;50.40
40075;BME280;26529;51.530;11.754;2023-01-10T09:04:52;100317.44;;;18.64;50.39
40075;BME280;26529;51.530;11.754;2023-01-10T09:07:18;100327.09;;;18.65;50.34
40075;BME280;26529;51.530;11.754;2023-01-10T09:09:43;100324.44;;;18.65;50.39
40075;BME280;26529;51.530;11.754;2023-01-10T09:12:09;100328.66;;;18.69;50.44
40075;BME280;26529;51.530;11.754;2023-01-10T09:14:53;100331.31;;;18.69;50.24
40075;BME280;26529;51.530;11.754;2023-01-10T09:17:19;100334.63;;;18.73;50.34
40075;BME280;26529;51.530;11.754;2023-01-10T09:19:44;100334.41;;;18.76;50.10
40075;BME280;26529;51.530;11.754;2023-01-10T09:22:10;100342.13;;;18.81;49.98
40075;BME280;26529;51.530;11.754;2023-01-10T09:24:35;100339.28;;;18.84;49.96
40075;BME280;26529;51.530;11.754;2023-01-10T09:27:02;100336.41;;;18.87;49.81
40075;BME280;26529;51.530;11.754;2023-01-10T09:29:28;100334.53;;;18.89;49.78
40075;BME280;26529;51.530;11.754;2023-01-10T09:31:53;100348.78;;;18.88;49.85
40075;BME280;26529;51.530;11.754;2023-01-10T09:34:19;100349.44;;;18.92;49.60
40075;BME280;26529;51.530;11.754;2023-01-10T09:36:44;100344.78;;;18.95;49.88
40075;BME280;26529;51.530;11.754;2023-01-10T09:39:10;100348.19;;;18.97;49.54
40075;BME280;26529;51.530;11.754;2023-01-10T09:44:28;100365.09;;;18.96;49.66
40075;BME280;26529;51.530;11.754;2023-01-10T09:47:17;100367.91;;;18.93;49.70
40075;BME280;26529;51.530;11.754;2023-01-10T09:50:13;100374.97;;;18.94;49.84
40075;BME280;26529;51.530;11.754;2023-01-10T09:52:46;100388.72;;;19.01;49.96
40075;BME280;26529;51.530;11.754;2023-01-10T09:55:23;100397.38;;;19.05;49.62
40075;BME280;26529;51.530;11.754;2023-01-10T09:57:53;100394.91;;;19.02;49.80
40075;BME280;26529;51.530;11.754;2023-01-10T10:00:28;100394.66;;;19.06;49.74
40075;BME280;26529;51.530;11.754;2023-01-10T10:02:55;100388.28;;;19.09;49.70
40075;BME280;26529;51.530;11.754;2023-01-10T10:05:26;100390.16;;;19.07;49.61
40075;BME280;26529;51.530;11.754;2023-01-10T10:07:55;100390.16;;;19.07;49.74
40075;BME280;26529;51.530;11.754;2023-01-10T10:10:24;100395.81;;;19.01;49.87
40075;BME280;26529;51.530;11.754;2023-01-10T10:12:59;100401.66;;;19.07;49.69
40075;BME280;26529;51.530;11.754;2023-01-10T10:15:38;100399.88;;;19.08;49.75
40075;BME280;26529;51.530;11.754;2023-01-10T10:21:17;100370.34;;;19.13;49.72
40075;BME280;26529;51.530;11.754;2023-01-10T10:24:06;100364.16;;;19.12;49.77
40075;BME280;26529;51.530;11.754;2023-01-10T10:26:52;100358.09;;;19.10;49.71
40075;BME280;26529;51.530;11.754;2023-01-10T10:29:46;100373.19;;;19.09;50.12
40075;BME280;26529;51.530;11.754;2023-01-10T10:35:01;100371.06;;;19.00;50.08
40075;BME280;26529;51.530;11.754;2023-01-10T10:37:40;100355.22;;;18.98;50.14
40075;BME280;26529;51.530;11.754;2023-01-10T10:40:15;100357.53;;;19.05;49.96
40075;BME280;26529;51.530;11.754;2023-01-10T10:42:44;100370.66;;;19.08;49.95
40075;BME280;26529;51.530;11.754;2023-01-10T10:45:28;100381.28;;;19.08;50.09
40075;BME280;26529;51.530;11.754;2023-01-10T10:48:02;100374.22;;;19.07;50.02
40075;BME280;26529;51.530;11.754;2023-01-10T10:50:34;100368.75;;;19.10;49.91
40075;BME280;26529;51.530;11.754;2023-01-10T10:53:04;100376.78;;;19.08;49.99
40075;BME280;26529;51.530;11.754;2023-01-10T10:55:33;100368.75;;;19.10;49.79
40075;BME280;26529;51.530;11.754;2023-01-10T10:58:00;100372.16;;;19.12;49.82
40075;BME280;26529;51.530;11.754;2023-01-10T11:00:28;100369.69;;;19.09;49.90
40075;BME280;26529;51.530;11.754;2023-01-10T11:03:00;100383.06;;;19.07;49.90
40075;BME280;26529;51.530;11.754;2023-01-10T11:05:42;100395.69;;;19.04;50.01
40075;BME280;26529;51.530;11.754;2023-01-10T11:08:10;100395.81;;;19.01;50.11
40075;BME280;26529;51.530;11.754;2023-01-10T11:10:37;100396.09;;;18.96;50.10
40075;BME280;26529;51.530;11.754;2023-01-10T11:15:42;100400.75;;;18.92;50.28
40075;BME280;26529;51.530;11.754;2023-01-10T11:18:13;100394.50;;;18.93;50.16
40075;BME280;26529;51.530;11.754;2023-01-10T11:21:01;100399.13;;;18.90;50.18
40075;BME280;26529;51.530;11.754;2023-01-10T11:23:51;100400.19;;;18.87;50.26
40075;BME280;26529;51.530;11.754;2023-01-10T11:29:05;100405.69;;;18.84;50.20
40075;BME280;26529;51.530;11.754;2023-01-10T11:31:31;100396.97;;;18.82;50.12
40075;BME280;26529;51.530;11.754;2023-01-10T11:33:57;100395.25;;;18.81;50.10
40075;BME280;26529;51.530;11.754;2023-01-10T11:36:23;100399.78;;;18.79;50.23
40075;BME280;26529;51.530;11.754;2023-01-10T11:39:00;100409.66;;;18.77;50.29
40075;BME280;26529;51.530;11.754;2023-01-10T11:41:27;100402.66;;;18.76;50.25
40075;BME280;26529;51.530;11.754;2023-01-10T11:44:27;100404.50;;;18.74;50.27
40075;BME280;26529;51.530;11.754;2023-01-10T11:47:03;100406.41;;;18.71;50.25
40075;BME280;26529;51.530;11.754;2023-01-10T11:49:38;100403.75;;;18.71;50.23
40075;BME280;26529;51.530;11.754;2023-01-10T11:52:20;100408.31;;;18.69;50.16
40075;BME280;26529;51.530;11.754;2023-01-10T11:54:47;100406.63;;;18.68;50.24
40075;BME280;26529;51.530;11.754;2023-01-10T11:57:18;100412.00;;;18.67;50.25
40075;BME280;26529;51.530;11.754;2023-01-10T11:59:51;100402.34;;;18.66;50.20
40075;BME280;26529;51.530;11.754;2023-01-10T12:02:29;100412.09;;;18.65;50.08
40075;BME280;26529;51.530;11.754;2023-01-10T12:04:58;100409.53;;;18.64;49.87
40075;BME280;26529;51.530;11.754;2023-01-10T12:07:25;100406.97;;;18.62;50.01
40075;BME280;26529;51.530;11.754;2023-01-10T12:12:24;100410.75;;;18.58;50.22
40075;BME280;26529;51.530;11.754;2023-01-10T12:14:53;100410.06;;;18.54;50.24
40075;BME280;26529;51.530;11.754;2023-01-10T12:17:31;100416.41;;;18.52;50.02
40075;BME280;26529;51.530;11.754;2023-01-10T12:19:59;100417.44;;;18.49;50.25
40075;BME280;26529;51.530;11.754;2023-01-10T12:22:37;100419.28;;;18.49;50.20
40075;BME280;26529;51.530;11.754;2023-01-10T12:25:27;100420.22;;;18.48;50.20
40075;BME280;26529;51.530;11.754;2023-01-10T12:27:56;100422.97;;;18.46;50.29
40075;BME280;26529;51.530;11.754;2023-01-10T12:30:30;100422.09;;;18.46;50.18
40075;BME280;26529;51.530;11.754;2023-01-10T12:32:58;100426.56;;;18.45;50.34
40075;BME280;26529;51.530;11.754;2023-01-10T12:35:38;100429.28;;;18.43;50.34
40075;BME280;26529;51.530;11.754;2023-01-10T12:38:19;100428.44;;;18.43;50.30
40075;BME280;26529;51.530;11.754;2023-01-10T12:41:08;100423.03;;;18.44;50.49
40075;BME280;26529;51.530;11.754;2023-01-10T12:43:39;100423.97;;;18.43;50.42
40075;BME280;26529;51.530;11.754;2023-01-10T12:46:31;100426.56;;;18.45;50.50
40075;BME280;26529;51.530;11.754;2023-01-10T12:49:08;100431.69;;;18.48;50.31
40075;BME280;26529;51.530;11.754;2023-01-10T12:51:39;100426.38;;;18.48;50.32
40075;BME280;26529;51.530;11.754;2023-01-10T12:54:24;100427.91;;;18.52;50.09
40075;BME280;26529;51.530;11.754;2023-01-10T12:56:51;100429.63;;;18.53;50.27
40075;BME280;26529;51.530;11.754;2023-01-10T12:59:22;100430.44;;;18.54;50.16
40075;BME280;26529;51.530;11.754;2023-01-10T13:01:56;100434.06;;;18.53;50.20
40075;BME280;26529;51.530;11.754;2023-01-10T13:04:28;100433.09;;;18.54;50.28
40075;BME280;26529;51.530;11.754;2023-01-10T13:06:56;100425.13;;;18.54;50.32
40075;BME280;26529;51.530;11.754;2023-01-10T13:09:24;100425.13;;;18.54;50.19
40075;BME280;26529;51.530;11.754;2023-01-10T13:14:28;100423.44;;;18.53;50.47
40075;BME280;26529;51.530;11.754;2023-01-10T13:17:03;100425.34;;;18.51;50.22
40075;BME280;26529;51.530;11.754;2023-01-10T13:19:32;100435.19;;;18.49;50.27
40075;BME280;26529;51.530;11.754;2023-01-10T13:22:18;100429.97;;;18.47;50.42
40075;BME280;26529;51.530;11.754;2023-01-10T13:25:00;100431.75;;;18.47;50.24
40075;BME280;26529;51.530;11.754;2023-01-10T13:27:33;100439.91;;;18.43;50.27
40075;BME280;26529;51.530;11.754;2023-01-10T13:29:59;100438.22;;;18.42;50.27
40075;BME280;26529;51.530;11.754;2023-01-10T13:32:29;100446.25;;;18.41;50.33